Latest Coastal Weather Observations for St Lawrence

IDQ60701

Issued at 2:12 am EST Monday 30 March 2015 (issued every 10 minutes, with the page automatically refreshed every 10 minutes)

About coastal observations | Map of coastal stations | Coastal observations for QLD | Marine services | Other Formats
Station Details ID: 033210 Name: ST LAWRENCE Lat: -22.35 Lon: 149.52 Height: 9.19 m
Data from the previous 72 hours. | See also: Recent months at St Lawrence
Date/Time
EST
Temp

°C
Wind Pressure Rain
since 9am
mm
Weather Cloud Vis
km
Sea
Height
m
Swell
Dir
 
Speed
knots
Gust
knots
hPa Trend Height
m
Period
s
Dir
30/02:00am 23.2 S 4 5 1017.9 - 10.0 - - - - - - -
30/01:30am 23.5 CALM 0 0 1018.4 - 10.0 - - - - - - -
30/01:00am 23.7 N 4 7 1018.5 - 10.0 - - - - - - -
30/12:30am 23.9 ENE 3 5 1019.3 - 10.0 - - - - - - -
30/12:00am 23.7 E 4 6 1019.7 - 10.0 - - - - - - -
 
Date/Time
EST
Temp

°C
Wind Pressure Rain
since 9am
mm
Weather Cloud Vis
km
Sea
Height
m
Swell
Dir
 
Speed
knots
Gust
knots
hPa Trend Height
m
Period
s
Dir
29/11:30pm 23.2 S 3 5 1020.0 - 10.0 - - - - - - -
29/11:00pm 23.2 SSW 2 4 1020.3 - 10.0 - - - - - - -
29/10:30pm 23.3 CALM 0 0 1020.5 - 10.0 - - - - - - -
29/10:00pm 23.1 E 4 7 1020.7 - 10.0 - - - - - - -
29/09:30pm 23.7 E 6 9 1020.9 - 9.8 - - - - - - -
29/09:00pm 23.9 ESE 6 11 1020.6 - 9.8 - - - - - - -
29/08:30pm 23.7 SSE 3 5 1020.1 - 9.8 - - - - - - -
29/08:00pm 23.5 SW 2 3 1019.7 - 9.8 - - - - - - -
29/07:30pm 23.5 WSW 3 4 1019.6 - 9.8 - - - - - - -
29/07:00pm 23.3 E 3 5 1019.3 - 9.8 - - - - - - -
29/06:30pm 23.4 E 4 6 1018.8 - 8.2 - - - - - - -
29/06:00pm 25.0 SW 4 5 1018.1 - 1.8 - - - - - - -
29/05:30pm 25.8 SW 4 5 1017.8 - 1.8 - - - - - - -
29/05:00pm 26.6 SW 1 3 1017.7 - 1.8 - - - - - - -
29/04:30pm 26.8 ENE 2 4 1017.6 - 1.8 - - - - - - -
29/04:00pm 26.3 NE 3 6 1017.5 - 1.8 - - - - - - -
29/03:30pm 25.9 ENE 8 13 1017.4 - 1.8 - - - - - - -
29/03:00pm 25.8 NE 9 14 1017.3 - 1.8 Recent precip. - - - - - -
29/02:30pm 25.7 NE 11 16 1017.3 - 1.2 - - - - - - -
29/02:00pm 30.2 NNE 10 15 1017.2 - 0.0 - - - - - - -
29/01:30pm 30.4 NE 10 15 1017.5 - 0.0 - - - - - - -
29/01:00pm 31.0 ENE 11 16 1017.6 - 0.0 - - - - - - -
29/12:30pm 30.6 ENE 11 15 1018.0 - 0.0 - - - - - - -
29/12:00pm 30.2 ENE 11 19 1018.4 - 0.0 - - - - - - -
29/11:30am 31.7 ENE 6 10 1018.5 - 0.0 - - - - - - -
29/11:00am 31.9 ENE 7 13 1019.0 - 0.0 - - - - - - -
29/10:30am 30.5 E 6 9 1019.3 - 0.0 - - - - - - -
29/10:00am 29.4 E 7 10 1019.4 - 0.0 - - - - - - -
29/09:30am 29.6 ESE 5 13 1019.6 - 0.0 - - - - - - -
29/09:00am 28.5 ESE 5 8 1019.5 - 0.0 - - - - - - -
29/08:30am 27.0 SSE 7 9 1019.4 - 0.0 - - - - - - -
29/08:00am 26.2 S 5 7 1019.1 - 0.0 - - - - - - -
29/07:30am 24.7 S 6 9 1018.6 - 0.0 - - - - - - -
29/07:00am 23.6 S 6 9 1018.3 - 0.0 - - - - - - -
29/06:30am 23.3 S 5 7 1018.0 - 0.0 - - - - - - -
29/06:00am 23.2 SSE 5 8 1017.6 - 0.0 - - - - - - -
29/05:30am 22.9 S 5 7 1017.3 - 0.0 - - - - - - -
29/05:00am 22.8 SSE 5 7 1016.7 - 0.0 - - - - - - -
29/04:30am 23.0 SSE 5 6 1016.5 - 0.0 - - - - - - -
29/04:00am 23.0 SSE 5 6 1016.4 - 0.0 - - - - - - -
29/03:30am 23.0 S 5 6 1016.3 - 0.0 - - - - - - -
29/03:00am 23.4 S 5 6 1016.4 - 0.0 - - - - - - -
29/02:30am 23.4 SSE 4 5 1016.5 - 0.0 - - - - - - -
29/02:00am 23.8 SSE 4 6 1016.8 - 0.0 - - - - - - -
29/01:30am 24.2 SSE 4 5 1017.0 - 0.0 - - - - - - -
29/01:00am 24.2 SSE 4 5 1017.2 - 0.0 - - - - - - -
29/12:30am 24.9 SSE 4 5 1017.2 - 0.0 - - - - - - -
29/12:00am 25.3 SSE 3 4 1017.5 - 0.0 - - - - - - -
 
Date/Time
EST
Temp

°C
Wind Pressure Rain
since 9am
mm
Weather Cloud Vis
km
Sea
Height
m
Swell
Dir
 
Speed
knots
Gust
knots
hPa Trend Height
m
Period
s
Dir
28/11:30pm 25.8 ESE 3 5 1017.6 - 0.0 - - - - - - -
28/11:00pm 26.0 ESE 4 6 1017.9 - 0.0 - - - - - - -
28/10:30pm 26.2 E 4 7 1018.0 - 0.0 - - - - - - -
28/10:00pm 26.5 E 5 8 1017.9 - 0.0 - - - - - - -
28/09:30pm 26.7 E 6 9 1017.9 - 0.0 - - - - - - -
28/09:00pm 26.9 E 5 6 1017.7 - 0.0 - - - - - - -
28/08:30pm 27.2 ENE 5 7 1017.5 - 0.0 - - - - - - -
28/08:00pm 27.4 E 4 7 1017.3 - 0.0 - - - - - - -
28/07:30pm 27.7 NE 6 9 1016.9 - 0.0 - - - - - - -
28/07:00pm 27.8 NE 7 10 1016.4 - 0.0 - - - - - - -
28/06:30pm 28.0 NNE 8 11 1016.0 - 0.0 - - - - - - -
28/06:00pm 28.4 NNE 8 11 1015.6 - 0.0 - - - - - - -
28/05:30pm 28.8 NNE 10 13 1015.2 - 0.0 - - - - - - -
28/05:00pm 29.3 NNE 11 15 1015.0 - 0.0 - - - - - - -
28/04:30pm 29.6 NNE 11 15 1014.8 - 0.0 - - - - - - -
28/04:00pm 30.2 NNE 11 16 1014.8 - 0.0 - - - - - - -
28/03:30pm 30.7 NNE 11 16 1014.7 - 0.0 - - - - - - -
28/03:00pm 32.0 NE 11 15 1014.6 - 0.0 - - - - - - -
28/02:30pm 32.4 ENE 9 13 1014.8 - 0.0 - - - - - - -
28/02:00pm 31.6 NE 6 12 1015.1 - 0.0 - - - - - - -
28/01:30pm 31.6 ENE 7 11 1015.5 - 0.0 - - - - - - -
28/01:00pm 31.5 E 7 16 1015.9 - 0.0 - - - - - - -
28/12:30pm 31.7 SE 5 11 1016.5 - 0.0 - - - - - - -
28/12:00pm 31.1 E 6 10 1017.1 - 0.0 - - - - - - -
28/11:30am 29.9 SE 7 11 1017.6 - 0.0 - - - - - - -
28/11:00am 31.0 E 6 10 1018.1 - 0.0 - - - - - - -
28/10:30am 30.3 E 5 9 1018.4 - 0.0 - - - - - - -
28/10:00am 29.3 SE 7 13 1018.5 - 0.0 - - - - - - -
28/09:30am 29.9 SE 2 7 1018.4 - 0.0 - - - - - - -
28/09:00am 28.2 S 5 9 1018.4 - 0.0 - - - - - - -
28/08:30am 27.4 S 6 9 1018.2 - 0.0 - - - - - - -
28/08:00am 26.5 SSE 6 7 1018.0 - 0.0 - - - - - - -
28/07:30am 25.1 S 6 9 1017.8 - 0.0 - - - - - - -
28/07:00am 24.1 SSE 5 7 1017.4 - 0.0 - - - - - - -
28/06:30am 23.4 S 5 6 1017.2 - 0.0 - - - - - - -
28/06:00am 23.5 S 5 7 1016.7 - 0.0 - - - - - - -
28/05:30am 24.0 SSE 5 6 1016.4 - 0.0 - - - - - - -
28/05:00am 24.1 SSE 5 6 1016.2 - 0.0 - - - - - - -
28/04:30am 23.9 SSE 4 5 1015.8 - 0.0 - - - - - - -
28/04:00am 23.6 SSE 4 5 1015.6 - 0.0 - - - - - - -
28/03:30am 24.0 S 4 5 1015.7 - 0.0 - - - - - - -
28/03:00am 24.3 S 4 5 1015.7 - 0.0 - - - - - - -
28/02:30am 24.7 SSE 3 4 1015.8 - 0.0 - - - - - - -
28/02:00am 24.7 SSE 2 3 1015.9 - 0.0 - - - - - - -
28/01:30am 24.8 S 4 5 1016.1 - 0.0 - - - - - - -
28/01:00am 25.3 ESE 3 4 1016.3 - 0.0 - - - - - - -
28/12:30am 25.6 ENE 3 5 1016.4 - 0.0 - - - - - - -
28/12:00am 25.9 ENE 4 6 1016.6 - 0.0 - - - - - - -
 
Date/Time
EST
Temp

°C
Wind Pressure Rain
since 9am
mm
Weather Cloud Vis
km
Sea
Height
m
Swell
Dir
 
Speed
knots
Gust
knots
hPa Trend Height
m
Period
s
Dir
27/11:30pm 25.9 E 3 5 1016.9 - 0.0 - - - - - - -
27/11:00pm 26.0 ENE 3 5 1016.9 - 0.0 - - - - - - -
27/10:30pm 26.0 E 4 6 1017.1 - 0.0 - - - - - - -
27/10:00pm 25.6 E 3 5 1017.0 - 0.0 - - - - - - -
27/09:30pm 25.7 CALM 0 0 1016.9 - 0.0 - - - - - - -
27/09:00pm 26.6 NE 3 6 1016.7 - 0.0 - - - - - - -
27/08:30pm 27.2 NE 5 7 1016.5 - 0.0 - - - - - - -
27/08:00pm 27.2 NE 6 8 1016.3 - 0.0 - - - - - - -
27/07:30pm 27.3 NE 7 9 1016.0 - 0.0 - - - - - - -
27/07:00pm 27.7 NNE 9 12 1015.4 - 0.0 - - - - - - -
27/06:30pm 27.9 NNE 9 14 1015.1 - 0.0 - - - - - - -
27/06:00pm 28.2 NNE 9 14 1014.8 - 0.0 - - - - - - -
27/05:30pm 29.0 NNE 10 13 1014.5 - 0.0 - - - - - - -
27/05:00pm 29.9 NNE 9 13 1014.2 - 0.0 - - - - - - -
27/04:30pm 30.2 NNE 11 13 1014.0 - 0.0 - - - - - - -
27/04:00pm 31.0 NE 9 12 1013.7 - 0.0 - - - - - - -
27/03:30pm 31.7 NE 8 11 1013.7 - 0.0 - - - - - - -
27/03:00pm 32.3 NNE 9 12 1013.7 - 0.0 - - - - - - -
27/02:30pm 32.3 NE 10 16 1013.9 - 0.0 - - - - - - -
27/02:00pm 32.7 NE 7 13 1014.2 - 0.0 - - - - - - -
27/01:30pm 32.3 NNE 9 13 1014.7 - 0.0 - - - - - - -
27/01:00pm 32.5 NNE 9 12 1015.1 - 0.0 - - - - - - -
27/12:30pm 31.5 NE 7 12 1015.7 - 0.0 - - - - - - -
27/12:00pm 31.6 ENE 7 12 1016.7 - 0.0 - - - - - - -
27/11:30am 31.2 ENE 5 10 1017.2 - 0.0 - - - - - - -
27/11:00am 30.8 ENE 4 8 1017.8 - 0.0 - - - - - - -
27/10:30am 29.3 NE 7 9 1018.2 - 0.0 - - - - - - -
27/10:00am 29.6 SE 4 7 1018.4 - 0.0 - - - - - - -
27/09:30am 29.2 ESE 5 7 1018.5 - 0.0 - - - - - - -
27/09:00am 28.1 SSE 6 9 1018.6 - 0.0 - - - - - - -
27/08:30am 26.9 S 6 8 1018.6 - 0.0 - - - - - - -
27/08:00am 26.1 S 6 9 1018.4 - 0.0 - - - - - - -
27/07:30am 25.1 SSE 6 8 1018.2 - 0.0 - - - - - - -
27/07:00am 23.5 SSE 6 8 1017.8 - 0.0 - - - - - - -
27/06:30am 22.9 SSE 5 7 1017.5 - 0.0 - - - - - - -
27/06:00am 22.1 S 4 6 1017.3 - 0.0 - - - - - - -
27/05:30am 22.3 S 4 5 1017.0 - 0.0 - - - - - - -
27/05:00am 22.0 S 4 5 1016.6 - 0.0 - - - - - - -
27/04:30am 22.1 CALM 0 0 1016.3 - 0.0 - - - - - - -
27/04:00am 22.0 S 1 3 1016.1 - 0.0 - - - - - - -
27/03:30am 22.2 SSW 1 4 1016.1 - 0.0 - - - - - - -
27/03:00am 22.5 S 3 5 1016.1 - 0.0 - - - - - - -
27/02:30am 23.0 S 4 5 1016.2 - 0.0 - - - - - - -

Other Formats:

Comma delimited format used in spreadsheet applications
http://www.bom.gov.au/fwo/IDQ60701/IDQ60701.95369.axf

JavaScript Object Notation format (JSON) in row-major order
http://www.bom.gov.au/fwo/IDQ60701/IDQ60701.95369.json